Time;durP1;ratioP1;P1;durP2;ratioP2;P2;SDS_P1;SDS_P2;PMS_P1;PMS_P2;Temp;Humidity;BMP_temperature;BMP_pressure;BME280_temperature;BME280_humidity;BME280_pressure;Samples;Min_cycle;Max_cycle;Signal;HPM_P1;HPM_P2
2022/09/29 00:00:34;;;;;;;3.13;1.33;;;16.00;82.50;;;;;;4988272;28;20093;-80
2022/09/29 00:02:59;;;;;;;2.58;1.60;;;16.10;82.60;;;;;;4985836;28;20034;-77
2022/09/29 00:05:25;;;;;;;2.42;1.58;;;16.10;82.50;;;;;;4986876;28;20045;-80
2022/09/29 00:07:51;;;;;;;2.60;1.60;;;16.10;82.40;;;;;;4987137;28;20038;-79
2022/09/29 00:10:16;;;;;;;4.38;1.67;;;16.10;82.40;;;;;;4988068;28;20551;-79
2022/09/29 00:12:42;;;;;;;2.22;1.50;;;16.10;82.20;;;;;;4987532;28;20037;-76
2022/09/29 00:15:08;;;;;;;2.65;1.60;;;16.20;82.30;;;;;;4988333;28;20026;-76
2022/09/29 00:17:33;;;;;;;3.30;1.88;;;16.10;82.20;;;;;;4987631;28;20432;-78
2022/09/29 00:19:59;;;;;;;2.28;1.50;;;16.10;82.30;;;;;;4986245;28;20029;-77
2022/09/29 00:22:24;;;;;;;2.20;1.60;;;16.10;82.30;;;;;;4986760;28;20461;-77
2022/09/29 00:24:50;;;;;;;1.90;1.35;;;16.10;82.40;;;;;;4987352;28;20165;-77
2022/09/29 00:27:17;;;;;;;2.53;1.60;;;16.10;82.80;;;;;;4987664;28;20125;-77
2022/09/29 00:29:43;;;;;;;2.90;1.60;;;16.10;82.50;;;;;;4987716;28;20057;-76
2022/09/29 00:32:08;;;;;;;2.80;1.65;;;16.00;82.50;;;;;;4988293;28;20057;-77
2022/09/29 00:34:34;;;;;;;2.63;1.50;;;16.10;82.60;;;;;;4987528;28;20054;-76
2022/09/29 00:37:00;;;;;;;2.63;1.50;;;16.00;82.60;;;;;;4995984;28;20033;-77
2022/09/29 00:39:25;;;;;;;3.45;1.58;;;16.00;82.60;;;;;;4987308;28;20049;-76
2022/09/29 00:41:51;;;;;;;2.42;1.52;;;16.00;82.60;;;;;;4983055;28;20034;-77
2022/09/29 00:44:18;;;;;;;2.83;1.60;;;16.00;82.60;;;;;;4973909;28;20042;-77
2022/09/29 00:46:51;;;;;;;3.97;1.60;;;16.10;82.70;;;;;;4985847;28;20022;-77
2022/09/29 00:49:37;;;;;;;2.50;1.58;;;16.00;82.60;;;;;;4981644;28;20056;-77
2022/09/29 00:52:27;;;;;;;2.38;1.60;;;16.00;82.60;;;;;;4987083;28;20038;-80
2022/09/29 00:54:57;;;;;;;2.42;1.60;;;16.00;82.70;;;;;;4986261;28;20056;-77
2022/09/29 00:57:27;;;;;;;2.92;1.80;;;16.00;82.70;;;;;;4985876;28;20488;-81
2022/09/29 01:00:11;;;;;;;2.40;1.70;;;16.00;82.60;;;;;;4972929;28;20041;-76
2022/09/29 01:02:41;;;;;;;2.53;1.60;;;16.00;82.60;;;;;;4985063;28;20057;-75
2022/09/29 01:05:11;;;;;;;2.10;1.50;;;16.00;82.60;;;;;;4986459;28;20049;-78
2022/09/29 01:07:38;;;;;;;2.80;1.70;;;16.00;82.50;;;;;;4992486;28;20488;-76
2022/09/29 01:10:05;;;;;;;2.88;1.70;;;16.10;82.60;;;;;;4999347;28;20113;-77
2022/09/29 01:12:31;;;;;;;3.10;1.75;;;16.10;82.60;;;;;;4985603;28;20023;-79
2022/09/29 01:14:57;;;;;;;2.28;1.60;;;16.10;82.50;;;;;;4990597;28;20030;-77
2022/09/29 01:17:23;;;;;;;2.00;1.42;;;16.10;82.90;;;;;;4987669;28;20129;-77
2022/09/29 01:20:21;;;;;;;2.65;1.60;;;16.10;82.30;;;;;;4996411;28;20032;-76
2022/09/29 01:22:57;;;;;;;2.42;1.60;;;16.10;82.20;;;;;;5005635;28;20085;-77
2022/09/29 01:25:43;;;;;;;2.97;1.70;;;16.10;82.20;;;;;;4989624;28;20561;-77
2022/09/29 01:28:29;;;;;;;2.90;1.77;;;16.10;82.20;;;;;;4989745;28;20037;-75
2022/09/29 01:30:57;;;;;;;2.70;1.80;;;16.10;82.40;;;;;;4990320;28;20034;-77
2022/09/29 01:33:38;;;;;;;2.67;1.63;;;16.10;82.40;;;;;;4990445;28;20516;-76
2022/09/29 01:36:10;;;;;;;2.63;1.60;;;16.10;82.50;;;;;;4989475;28;20557;-77
2022/09/29 01:39:02;;;;;;;2.95;1.90;;;16.10;82.60;;;;;;4989975;28;20034;-77
2022/09/29 01:41:37;;;;;;;2.35;1.50;;;16.10;82.60;;;;;;4990580;28;20105;-77
2022/09/29 01:44:11;;;;;;;2.35;1.60;;;16.00;82.60;;;;;;4990153;28;21572;-77
2022/09/29 01:46:43;;;;;;;3.00;1.73;;;16.10;82.70;;;;;;4989872;28;20443;-78
2022/09/29 01:49:10;;;;;;;4.45;2.08;;;16.00;82.70;;;;;;4994849;28;20030;-79
2022/09/29 01:51:45;;;;;;;2.30;1.60;;;16.00;82.70;;;;;;4990156;28;20026;-77
2022/09/29 01:54:16;;;;;;;2.22;1.67;;;16.00;82.70;;;;;;4975667;28;20029;-80
2022/09/29 01:56:55;;;;;;;2.45;1.70;;;16.00;82.70;;;;;;4990227;28;20049;-78
2022/09/29 01:59:54;;;;;;;3.20;1.85;;;16.00;82.70;;;;;;4990435;28;20066;-77
2022/09/29 02:02:30;;;;;;;3.15;1.70;;;16.00;82.70;;;;;;4969934;28;20042;-77
2022/09/29 02:05:00;;;;;;;2.05;1.67;;;16.00;82.80;;;;;;4976756;28;20569;-78
2022/09/29 02:07:33;;;;;;;2.70;1.73;;;16.00;82.70;;;;;;4986133;28;20069;-80
2022/09/29 02:10:09;;;;;;;2.28;1.65;;;16.00;82.70;;;;;;4989558;28;20101;-77
2022/09/29 02:12:37;;;;;;;2.42;1.70;;;16.00;82.70;;;;;;4987867;28;20096;-76
2022/09/29 02:15:06;;;;;;;2.92;1.77;;;16.00;82.70;;;;;;4994956;28;20030;-77
2022/09/29 02:17:41;;;;;;;2.42;1.50;;;16.00;82.60;;;;;;4986422;28;20466;-80
2022/09/29 02:20:10;;;;;;;3.20;1.73;;;16.00;82.60;;;;;;4987813;28;20069;-78
2022/09/29 02:22:37;;;;;;;2.58;1.60;;;16.10;82.60;;;;;;4989124;28;20061;-77
2022/09/29 02:25:03;;;;;;;2.63;1.70;;;16.10;82.50;;;;;;4995469;28;20777;-76
2022/09/29 02:27:29;;;;;;;2.92;1.83;;;16.10;82.40;;;;;;4988519;28;20414;-77
2022/09/29 02:29:58;;;;;;;2.33;1.70;;;16.10;82.40;;;;;;4989707;28;20076;-79
2022/09/29 02:32:23;;;;;;;2.95;1.60;;;16.10;82.40;;;;;;4984746;28;20035;-76
2022/09/29 02:34:50;;;;;;;3.33;1.80;;;16.10;82.40;;;;;;4986385;28;20084;-78
2022/09/29 02:37:44;;;;;;;2.40;1.75;;;16.10;82.50;;;;;;4972313;28;20068;-79
2022/09/29 02:40:17;;;;;;;2.15;1.60;;;16.00;82.50;;;;;;4972053;28;20448;-76
2022/09/29 02:43:23;;;;;;;2.55;1.80;;;16.10;82.60;;;;;;4971754;28;20081;-77
2022/09/29 02:45:55;;;;;;;2.70;1.70;;;16.00;82.60;;;;;;4988109;28;20044;-78
2022/09/29 02:48:32;;;;;;;2.30;1.60;;;16.00;82.60;;;;;;4989295;28;20030;-76
2022/09/29 02:51:22;;;;;;;2.78;1.65;;;16.00;82.70;;;;;;4983906;28;20031;-79
2022/09/29 02:54:24;;;;;;;3.15;1.75;;;16.00;82.70;;;;;;4988610;28;20037;-76
2022/09/29 02:57:05;;;;;;;3.13;1.85;;;16.00;82.70;;;;;;4989139;28;20435;-75
2022/09/29 02:59:44;;;;;;;3.25;1.90;;;16.00;82.80;;;;;;4989188;28;20030;-76
2022/09/29 03:02:10;;;;;;;3.83;2.25;;;16.00;82.80;;;;;;4968163;28;20409;-77
2022/09/29 03:04:36;;;;;;;2.72;1.80;;;16.00;82.80;;;;;;4969923;28;20031;-77
2022/09/29 03:07:01;;;;;;;2.58;1.65;;;16.00;82.80;;;;;;4981136;28;20041;-76
2022/09/29 03:09:27;;;;;;;2.72;1.80;;;16.00;82.80;;;;;;4988485;28;20110;-78
2022/09/29 03:11:52;;;;;;;2.45;1.60;;;16.00;82.80;;;;;;4987957;28;20177;-77
2022/09/29 03:14:18;;;;;;;2.83;1.75;;;15.90;82.80;;;;;;4988838;28;20026;-78
2022/09/29 03:16:43;;;;;;;2.50;1.67;;;16.00;82.80;;;;;;4991118;28;20263;-78
2022/09/29 03:19:09;;;;;;;2.20;1.55;;;16.00;82.80;;;;;;4987751;28;20429;-77
2022/09/29 03:21:34;;;;;;;2.55;1.70;;;16.00;82.80;;;;;;4990731;28;20030;-76
2022/09/29 03:24:00;;;;;;;3.55;1.70;;;16.00;82.70;;;;;;4988224;28;20035;-78
2022/09/29 03:26:26;;;;;;;2.65;1.67;;;16.00;82.70;;;;;;4988568;28;20034;-77
2022/09/29 03:28:52;;;;;;;3.15;1.90;;;16.00;83.20;;;;;;4988420;28;20038;-77
2022/09/29 03:31:18;;;;;;;2.63;1.60;;;16.00;82.50;;;;;;4986922;28;20109;-77
2022/09/29 03:33:44;;;;;;;2.75;1.80;;;16.10;82.50;;;;;;4986662;28;20037;-77
2022/09/29 03:36:10;;;;;;;2.03;1.52;;;16.10;82.40;;;;;;4989836;28;20034;-77
2022/09/29 03:38:36;;;;;;;2.85;1.90;;;16.10;82.40;;;;;;4993573;28;20092;-76
2022/09/29 03:41:02;;;;;;;2.20;1.60;;;16.00;82.40;;;;;;4988281;28;20497;-78
2022/09/29 03:43:27;;;;;;;2.67;1.60;;;16.00;82.50;;;;;;4988071;28;20026;-76
2022/09/29 03:45:54;;;;;;;2.53;1.65;;;16.00;82.60;;;;;;4988131;28;20038;-77
2022/09/29 03:48:22;;;;;;;3.05;1.80;;;16.00;82.60;;;;;;4988225;28;20060;-76
2022/09/29 03:50:49;;;;;;;2.50;1.55;;;16.00;82.70;;;;;;4987550;28;20034;-75
2022/09/29 03:53:15;;;;;;;2.72;1.60;;;16.00;82.70;;;;;;4986663;28;20037;-77
2022/09/29 03:55:45;;;;;;;2.42;1.70;;;16.00;82.70;;;;;;4987273;28;20114;-76
2022/09/29 03:58:10;;;;;;;3.08;1.80;;;16.00;82.80;;;;;;4987833;28;20034;-79
2022/09/29 04:00:36;;;;;;;2.17;1.65;;;16.00;82.80;;;;;;4987719;28;20537;-78
2022/09/29 04:03:02;;;;;;;2.38;1.70;;;16.10;82.90;;;;;;4986860;28;20045;-77
2022/09/29 04:05:29;;;;;;;2.53;1.73;;;15.90;82.80;;;;;;4981304;28;20066;-77
2022/09/29 04:07:54;;;;;;;2.47;1.77;;;16.00;82.80;;;;;;4983814;28;20026;-76
2022/09/29 04:10:20;;;;;;;2.70;1.75;;;16.00;82.80;;;;;;4985641;28;20057;-75
2022/09/29 04:12:46;;;;;;;2.45;1.63;;;16.00;82.80;;;;;;4968626;28;20104;-77
2022/09/29 04:15:12;;;;;;;2.92;1.70;;;15.90;82.80;;;;;;4968719;28;20478;-77
2022/09/29 04:17:37;;;;;;;3.35;1.98;;;16.00;82.80;;;;;;4988687;28;20026;-78
2022/09/29 04:20:03;;;;;;;2.55;1.50;;;16.00;82.80;;;;;;4985222;28;20030;-76
2022/09/29 04:22:28;;;;;;;3.22;1.92;;;15.90;82.80;;;;;;4985695;28;20046;-76
2022/09/29 04:24:54;;;;;;;2.47;1.63;;;16.00;82.90;;;;;;4985622;28;20579;-79
2022/09/29 04:27:20;;;;;;;3.25;1.83;;;15.90;82.80;;;;;;4984682;28;20042;-75
2022/09/29 04:29:46;;;;;;;2.65;1.60;;;16.00;82.70;;;;;;4981188;28;20029;-76
2022/09/29 04:32:11;;;;;;;2.65;1.70;;;15.90;82.70;;;;;;4985878;28;20045;-75
2022/09/29 04:34:37;;;;;;;2.97;1.92;;;16.00;82.70;;;;;;4997977;28;20029;-80
2022/09/29 04:37:02;;;;;;;2.85;1.80;;;16.00;82.60;;;;;;4982917;28;20170;-79
2022/09/29 04:39:28;;;;;;;2.58;1.65;;;16.00;82.50;;;;;;4986074;28;20080;-77
2022/09/29 04:41:53;;;;;;;2.72;1.80;;;16.00;82.40;;;;;;4986277;28;20030;-76
2022/09/29 04:44:21;;;;;;;2.65;1.70;;;16.00;82.40;;;;;;4990315;28;20053;-74
2022/09/29 04:46:51;;;;;;;2.90;1.92;;;16.00;82.50;;;;;;4986951;28;20726;-78
2022/09/29 04:49:17;;;;;;;2.53;1.65;;;16.00;82.50;;;;;;4995541;28;20033;-76
2022/09/29 04:51:43;;;;;;;2.58;1.77;;;16.00;82.60;;;;;;5005130;28;20034;-76
2022/09/29 04:54:09;;;;;;;3.15;2.00;;;16.00;82.60;;;;;;5004123;28;20446;-77
2022/09/29 04:56:34;;;;;;;3.30;1.80;;;16.00;82.70;;;;;;4994507;28;20088;-75
2022/09/29 04:59:00;;;;;;;2.85;1.80;;;16.00;82.70;;;;;;4985709;28;20030;-75
2022/09/29 05:01:25;;;;;;;2.65;1.80;;;16.00;82.80;;;;;;4985723;28;20065;-76
2022/09/29 05:03:51;;;;;;;3.20;2.05;;;16.00;82.80;;;;;;4984265;28;20049;-75
2022/09/29 05:06:16;;;;;;;2.70;1.80;;;15.90;82.80;;;;;;4986812;28;20062;-77
2022/09/29 05:08:42;;;;;;;3.08;1.80;;;16.00;82.80;;;;;;4986949;28;20030;-75
2022/09/29 05:11:09;;;;;;;2.78;1.77;;;16.00;82.90;;;;;;4986718;28;20030;-75
2022/09/29 05:13:35;;;;;;;3.75;1.95;;;15.90;82.80;;;;;;4987245;28;20046;-79
2022/09/29 05:16:02;;;;;;;3.13;2.00;;;16.00;82.90;;;;;;4986207;28;20030;-79
2022/09/29 05:18:28;;;;;;;2.60;1.70;;;15.90;82.80;;;;;;4986057;28;20346;-77
2022/09/29 05:20:54;;;;;;;3.20;1.80;;;15.90;82.80;;;;;;4987621;28;20499;-78
2022/09/29 05:23:20;;;;;;;3.15;1.92;;;15.90;82.80;;;;;;4987361;28;20189;-76
2022/09/29 05:25:46;;;;;;;3.05;1.88;;;16.00;82.90;;;;;;4986356;28;20062;-78
2022/09/29 05:28:14;;;;;;;2.95;1.90;;;15.90;82.80;;;;;;4985672;28;20066;-78
2022/09/29 05:30:40;;;;;;;2.90;1.80;;;15.90;82.80;;;;;;4985859;28;20034;-78
2022/09/29 05:33:05;;;;;;;3.22;1.92;;;15.90;82.80;;;;;;4982424;28;20026;-77
2022/09/29 05:35:31;;;;;;;3.17;1.85;;;16.00;82.80;;;;;;4986132;28;20043;-76
2022/09/29 05:37:57;;;;;;;3.20;1.80;;;15.90;82.70;;;;;;4986146;28;20443;-75
2022/09/29 05:40:23;;;;;;;2.38;1.77;;;16.00;82.70;;;;;;5001206;28;20556;-76
2022/09/29 05:42:49;;;;;;;3.35;1.90;;;16.00;82.60;;;;;;4985348;28;20057;-76
2022/09/29 05:45:15;;;;;;;2.83;1.88;;;16.00;82.50;;;;;;4985889;28;20061;-78
2022/09/29 05:47:44;;;;;;;2.83;1.73;;;16.00;82.40;;;;;;5000130;28;20033;-76
2022/09/29 05:50:11;;;;;;;4.15;1.92;;;16.00;82.30;;;;;;4998168;28;20371;-79
2022/09/29 05:52:37;;;;;;;3.28;2.00;;;16.00;82.30;;;;;;4999231;28;20560;-75
2022/09/29 05:55:03;;;;;;;3.47;1.85;;;16.00;82.40;;;;;;4999955;28;20500;-76
2022/09/29 05:57:29;;;;;;;3.38;1.98;;;16.00;82.40;;;;;;4999245;28;20058;-75
2022/09/29 05:59:54;;;;;;;2.75;1.80;;;16.00;82.90;;;;;;4984258;28;20061;-78
2022/09/29 06:02:21;;;;;;;3.22;2.00;;;16.00;82.40;;;;;;4986797;28;20034;-78
2022/09/29 06:04:46;;;;;;;3.50;2.10;;;16.00;82.40;;;;;;5002566;28;20104;-80
2022/09/29 06:07:12;;;;;;;3.95;2.10;;;16.00;82.40;;;;;;5003952;28;20034;-75
2022/09/29 06:09:37;;;;;;;3.08;2.05;;;16.00;82.30;;;;;;4989226;28;20031;-80
2022/09/29 06:12:03;;;;;;;3.00;1.83;;;16.00;82.40;;;;;;4978871;28;20050;-77
2022/09/29 06:14:29;;;;;;;2.65;1.92;;;16.00;82.30;;;;;;4971321;28;20034;-77
2022/09/29 06:16:54;;;;;;;3.33;2.03;;;16.00;82.30;;;;;;4983563;28;20034;-77
2022/09/29 06:19:20;;;;;;;3.60;2.20;;;16.00;82.20;;;;;;4987449;28;20055;-76
2022/09/29 06:21:45;;;;;;;4.47;2.30;;;16.10;82.30;;;;;;4987232;28;20804;-75
2022/09/29 06:24:11;;;;;;;6.40;2.60;;;16.00;82.00;;;;;;4986173;28;20022;-76
2022/09/29 06:26:36;;;;;;;5.72;2.70;;;16.00;82.00;;;;;;4987186;28;20472;-76
2022/09/29 06:29:03;;;;;;;4.70;2.40;;;16.00;82.00;;;;;;4987665;28;20034;-75
2022/09/29 06:31:30;;;;;;;6.53;2.67;;;16.00;81.90;;;;;;4988093;28;20027;-76
2022/09/29 06:33:57;;;;;;;4.90;2.30;;;16.00;81.80;;;;;;4970795;28;20040;-78
2022/09/29 06:39:27;;;;;;;4.60;2.33;;;16.10;81.70;;;;;;4988479;28;20069;-78
2022/09/29 06:41:53;;;;;;;4.50;2.40;;;16.10;81.60;;;;;;4986393;28;20058;-75
2022/09/29 06:44:20;;;;;;;5.47;2.40;;;16.10;81.60;;;;;;4987200;28;20045;-80
2022/09/29 06:46:47;;;;;;;4.00;2.50;;;16.10;81.50;;;;;;4986598;28;20676;-76
2022/09/29 06:49:14;;;;;;;4.65;2.58;;;16.20;81.40;;;;;;4986636;28;20208;-76
2022/09/29 06:51:41;;;;;;;4.45;2.35;;;16.30;81.30;;;;;;4988087;28;20022;-76
2022/09/29 06:54:07;;;;;;;3.70;2.13;;;16.30;80.90;;;;;;4986333;28;20026;-76
2022/09/29 06:56:32;;;;;;;4.22;2.28;;;16.40;80.80;;;;;;4986582;28;20032;-77
2022/09/29 06:58:58;;;;;;;7.18;2.22;;;16.40;80.60;;;;;;4986071;28;20069;-76
2022/09/29 07:01:23;;;;;;;4.13;2.40;;;16.40;80.60;;;;;;4986480;28;20045;-76
2022/09/29 07:03:49;;;;;;;4.53;2.50;;;16.30;80.50;;;;;;4987302;28;20026;-76
2022/09/29 07:06:14;;;;;;;4.18;2.42;;;16.40;80.70;;;;;;4987447;28;20417;-75
2022/09/29 07:08:40;;;;;;;4.60;2.47;;;16.40;80.70;;;;;;4987735;28;20037;-77
2022/09/29 07:11:07;;;;;;;4.13;2.35;;;16.40;80.70;;;;;;4985968;28;20084;-75
2022/09/29 07:13:33;;;;;;;4.25;2.30;;;16.40;80.60;;;;;;4985675;28;20093;-77
2022/09/29 07:16:07;;;;;;;4.60;2.42;;;16.50;80.50;;;;;;4986471;28;20034;-76
2022/09/29 07:18:35;;;;;;;4.28;2.58;;;16.50;80.40;;;;;;4970268;28;20034;-76
2022/09/29 07:21:00;;;;;;;4.70;2.10;;;16.50;80.30;;;;;;4988232;28;20030;-76
2022/09/29 07:23:26;;;;;;;3.88;2.15;;;16.50;80.10;;;;;;4986361;28;20030;-78
2022/09/29 07:25:52;;;;;;;4.05;2.30;;;16.60;80.10;;;;;;4986539;28;20041;-76
2022/09/29 07:28:17;;;;;;;4.28;2.20;;;16.60;79.90;;;;;;4987154;28;20030;-76
2022/09/29 07:30:43;;;;;;;4.03;2.30;;;16.60;79.90;;;;;;4985849;28;20533;-76
2022/09/29 07:33:09;;;;;;;3.95;2.30;;;16.70;79.80;;;;;;4988507;28;20027;-76
2022/09/29 07:35:34;;;;;;;3.50;2.20;;;16.70;79.70;;;;;;4985630;28;20551;-75
2022/09/29 07:38:00;;;;;;;4.15;2.22;;;16.70;79.60;;;;;;4987016;28;20054;-77
2022/09/29 07:40:26;;;;;;;3.63;2.13;;;16.70;79.50;;;;;;4986825;28;20274;-77
2022/09/29 07:42:52;;;;;;;4.45;2.63;;;16.80;79.50;;;;;;4982297;28;20014;-76
2022/09/29 07:45:19;;;;;;;3.90;2.30;;;16.80;79.30;;;;;;4986858;28;20069;-75
2022/09/29 07:47:45;;;;;;;3.83;2.22;;;16.80;79.30;;;;;;4985516;28;20026;-75
2022/09/29 07:50:11;;;;;;;3.47;2.25;;;16.90;79.00;;;;;;4986883;28;20032;-75
2022/09/29 07:52:36;;;;;;;4.05;2.40;;;16.90;78.80;;;;;;4985232;28;20026;-75
2022/09/29 07:55:03;;;;;;;4.80;2.40;;;17.00;78.60;;;;;;4986500;28;20093;-75
2022/09/29 07:57:28;;;;;;;3.80;2.08;;;17.10;78.40;;;;;;4987058;28;20058;-75
2022/09/29 07:59:56;;;;;;;4.43;2.60;;;17.10;78.20;;;;;;4986621;28;20072;-76
2022/09/29 08:02:22;;;;;;;4.07;2.47;;;17.20;78.20;;;;;;4984991;28;20042;-79
2022/09/29 08:04:47;;;;;;;3.85;2.20;;;17.20;78.10;;;;;;4986322;28;20041;-76
2022/09/29 08:07:13;;;;;;;4.38;2.50;;;17.20;78.30;;;;;;4986421;28;20522;-75
2022/09/29 08:09:39;;;;;;;3.97;2.22;;;17.20;78.20;;;;;;4986524;28;20035;-77
2022/09/29 08:12:04;;;;;;;4.50;2.40;;;17.20;78.10;;;;;;4986181;28;20026;-75
2022/09/29 08:14:30;;;;;;;4.72;2.30;;;17.20;78.10;;;;;;4984784;28;20026;-77
2022/09/29 08:16:55;;;;;;;4.00;2.53;;;17.20;78.00;;;;;;4986689;28;20161;-74
2022/09/29 08:19:21;;;;;;;4.53;2.38;;;17.30;78.00;;;;;;4986389;28;20770;-77
2022/09/29 08:21:48;;;;;;;3.70;2.28;;;17.30;78.00;;;;;;4984809;28;20070;-76
2022/09/29 08:24:16;;;;;;;4.07;2.35;;;17.30;77.90;;;;;;4983617;28;20170;-75
2022/09/29 08:26:42;;;;;;;4.18;2.40;;;17.30;77.90;;;;;;4986047;28;20226;-75
2022/09/29 08:29:08;;;;;;;4.13;2.40;;;17.30;77.80;;;;;;4986138;28;20022;-76
2022/09/29 08:31:36;;;;;;;4.20;2.25;;;17.40;77.90;;;;;;4984944;28;20029;-76
2022/09/29 08:34:01;;;;;;;3.88;2.20;;;17.40;77.70;;;;;;4984530;28;20037;-76
2022/09/29 08:36:27;;;;;;;5.40;2.50;;;17.40;77.70;;;;;;4986128;28;20030;-76
2022/09/29 08:38:54;;;;;;;4.68;2.65;;;17.50;77.60;;;;;;4985889;28;20441;-75
2022/09/29 08:41:33;;;;;;;3.75;2.17;;;17.50;77.50;;;;;;4984794;28;20064;-75
2022/09/29 08:44:05;;;;;;;3.72;2.33;;;17.50;77.50;;;;;;4985558;28;20444;-77
2022/09/29 08:46:33;;;;;;;5.00;2.53;;;17.50;77.40;;;;;;4984405;28;20302;-75
2022/09/29 08:49:04;;;;;;;3.75;2.13;;;17.60;77.30;;;;;;4984677;28;20061;-75
2022/09/29 08:51:45;;;;;;;4.65;2.60;;;17.50;77.20;;;;;;4984618;28;20030;-77
2022/09/29 08:54:26;;;;;;;3.88;2.28;;;17.60;77.10;;;;;;4985702;28;20085;-79
2022/09/29 08:56:52;;;;;;;3.72;2.10;;;17.70;77.00;;;;;;4984283;28;20215;-74
2022/09/29 08:59:18;;;;;;;4.10;2.40;;;17.70;77.00;;;;;;4984690;28;20423;-75
2022/09/29 09:02:18;;;;;;;4.05;2.50;;;17.70;76.80;;;;;;4984434;28;20476;-78
2022/09/29 09:05:29;;;;;;;4.32;2.40;;;17.70;76.70;;;;;;4985586;28;20034;-78
2022/09/29 09:08:35;;;;;;;4.45;2.50;;;17.70;76.80;;;;;;4962188;28;20050;-75
2022/09/29 09:11:24;;;;;;;4.07;2.53;;;17.70;76.80;;;;;;4951511;28;20093;-76
2022/09/29 09:14:06;;;;;;;3.78;2.20;;;17.70;77.00;;;;;;4983658;28;20030;-80
2022/09/29 09:16:54;;;;;;;4.30;2.30;;;17.70;77.00;;;;;;4967756;28;20054;-76
2022/09/29 09:19:56;;;;;;;3.90;2.40;;;17.70;77.00;;;;;;4946841;28;20034;-80
2022/09/29 09:22:40;;;;;;;4.45;2.45;;;17.70;77.00;;;;;;4965110;28;20062;-76
2022/09/29 09:25:29;;;;;;;4.32;2.65;;;17.70;77.00;;;;;;4964000;28;20027;-75
2022/09/29 09:28:16;;;;;;;4.47;2.30;;;17.80;77.00;;;;;;4965738;28;20613;-76
2022/09/29 09:31:05;;;;;;;3.78;2.35;;;17.80;77.00;;;;;;4948663;28;20031;-76
2022/09/29 09:33:38;;;;;;;4.25;2.47;;;17.80;76.90;;;;;;4965380;28;20057;-75
2022/09/29 09:36:20;;;;;;;4.18;2.55;;;17.80;77.00;;;;;;4969649;28;20507;-75
2022/09/29 09:38:57;;;;;;;4.13;2.25;;;17.80;77.00;;;;;;4952301;28;20049;-76
2022/09/29 09:41:24;;;;;;;4.45;2.42;;;17.80;76.90;;;;;;4970074;28;20035;-76
2022/09/29 09:44:04;;;;;;;4.70;2.72;;;17.80;76.90;;;;;;4969240;28;20106;-76
2022/09/29 09:46:46;;;;;;;5.03;2.80;;;17.80;76.90;;;;;;4969393;28;20057;-76
2022/09/29 09:49:43;;;;;;;4.22;2.42;;;17.80;76.90;;;;;;4969806;28;20447;-78
2022/09/29 09:52:19;;;;;;;4.70;2.47;;;17.80;76.80;;;;;;4964507;28;20035;-75
2022/09/29 09:54:58;;;;;;;4.38;2.22;;;17.80;76.80;;;;;;4969393;28;20026;-75
2022/09/29 09:57:32;;;;;;;4.30;2.50;;;17.80;76.70;;;;;;4968443;28;20034;-77
2022/09/29 10:00:23;;;;;;;3.80;2.20;;;17.90;76.70;;;;;;4952245;28;20041;-76
2022/09/29 10:02:54;;;;;;;4.82;2.50;;;17.90;76.60;;;;;;4951412;28;20246;-76
2022/09/29 10:05:30;;;;;;;4.13;2.10;;;18.00;76.50;;;;;;4967995;28;20069;-79
2022/09/29 10:07:55;;;;;;;4.50;2.55;;;18.00;76.40;;;;;;4967875;28;20493;-75
2022/09/29 10:10:23;;;;;;;3.90;2.20;;;18.00;76.40;;;;;;4967789;28;20031;-77
2022/09/29 10:13:13;;;;;;;3.95;2.30;;;18.00;76.40;;;;;;4968755;28;20015;-75
2022/09/29 10:16:06;;;;;;;3.88;2.20;;;18.00;76.40;;;;;;4969272;28;20041;-77
2022/09/29 10:18:44;;;;;;;4.03;2.35;;;18.00;76.40;;;;;;4951386;28;20031;-76
2022/09/29 10:21:37;;;;;;;3.70;2.38;;;18.00;76.50;;;;;;4951840;28;20029;-76
2022/09/29 10:24:06;;;;;;;3.88;2.42;;;18.00;76.50;;;;;;4968444;28;20027;-75
2022/09/29 10:26:42;;;;;;;3.13;2.03;;;18.00;76.70;;;;;;4967244;28;20035;-76
2022/09/29 10:29:39;;;;;;;3.95;2.35;;;17.90;76.60;;;;;;4951592;28;20027;-76
2022/09/29 10:32:13;;;;;;;3.75;2.33;;;18.00;76.70;;;;;;4968488;28;20027;-75
2022/09/29 10:34:48;;;;;;;3.95;2.33;;;17.90;76.70;;;;;;4969128;28;20034;-76
2022/09/29 10:37:40;;;;;;;3.78;2.22;;;18.00;76.80;;;;;;4968669;28;20110;-75
2022/09/29 10:40:11;;;;;;;3.95;2.35;;;17.90;76.70;;;;;;4965900;28;20097;-76
2022/09/29 10:42:38;;;;;;;;;;;17.90;76.80;;;;;;4969055;28;20085;-78
2022/09/29 10:45:06;;;;;;;4.28;2.30;;;17.90;76.80;;;;;;4968339;28;20432;-79
2022/09/29 10:47:33;;;;;;;4.03;2.40;;;17.90;76.80;;;;;;4967503;28;20042;-76
2022/09/29 10:50:17;;;;;;;4.00;2.25;;;17.90;76.90;;;;;;4967047;28;20397;-76
2022/09/29 10:52:54;;;;;;;3.45;2.15;;;17.90;76.90;;;;;;4950735;28;20038;-75
2022/09/29 10:55:26;;;;;;;3.60;2.33;;;17.90;77.00;;;;;;4968667;28;20038;-77
2022/09/29 10:57:54;;;;;;;4.15;2.58;;;17.90;77.10;;;;;;4968376;28;20137;-75
2022/09/29 11:00:38;;;;;;;3.95;2.22;;;17.90;77.20;;;;;;4966965;28;20597;-76
2022/09/29 11:03:22;;;;;;;3.78;2.00;;;17.80;77.10;;;;;;4968022;28;20058;-78
2022/09/29 11:05:58;;;;;;;3.30;1.98;;;17.80;77.10;;;;;;4966610;28;20030;-77
2022/09/29 11:08:26;;;;;;;4.10;2.17;;;17.90;77.10;;;;;;4968141;28;20085;-77
2022/09/29 11:11:23;;;;;;;4.10;2.10;;;18.00;77.00;;;;;;4968153;28;20386;-76
2022/09/29 11:13:51;;;;;;;3.78;1.95;;;17.80;76.90;;;;;;4961904;28;20038;-76
2022/09/29 11:16:39;;;;;;;3.80;2.22;;;17.80;77.20;;;;;;4950699;28;20505;-75
2022/09/29 11:19:11;;;;;;;3.42;2.08;;;17.80;77.30;;;;;;4966740;28;20475;-76
2022/09/29 11:21:54;;;;;;;3.38;2.05;;;17.70;77.60;;;;;;4966709;28;20057;-76
2022/09/29 11:24:32;;;;;;;3.67;2.05;;;17.70;77.70;;;;;;4950239;28;20143;-75
2022/09/29 11:27:02;;;;;;;3.30;2.10;;;17.60;77.80;;;;;;4950342;28;20097;-78
2022/09/29 11:29:35;;;;;;;3.22;1.90;;;17.60;78.00;;;;;;4967992;28;20026;-75
2022/09/29 11:32:48;;;;;;;3.92;2.10;;;17.60;78.10;;;;;;4965954;28;20039;-79
2022/09/29 11:35:32;;;;;;;2.75;1.70;;;17.60;78.10;;;;;;4967804;28;20050;-75
2022/09/29 11:38:26;;;;;;;4.00;2.20;;;17.60;78.10;;;;;;4967580;28;20031;-76
2022/09/29 11:41:16;;;;;;;3.45;2.05;;;17.60;78.20;;;;;;4967669;28;20086;-76
2022/09/29 11:43:44;;;;;;;;;;;17.60;78.10;;;;;;4967519;28;20035;-75
2022/09/29 11:46:31;;;;;;;3.63;2.10;;;17.60;78.00;;;;;;4967183;28;20230;-74
2022/09/29 11:49:21;;;;;;;3.60;1.90;;;17.60;78.00;;;;;;4967459;28;20027;-80
2022/09/29 11:52:00;;;;;;;2.92;1.77;;;17.70;78.00;;;;;;4967572;28;20511;-76
2022/09/29 11:54:47;;;;;;;3.05;1.85;;;17.70;78.00;;;;;;4967331;28;20136;-77
2022/09/29 11:57:40;;;;;;;3.88;2.05;;;17.70;77.90;;;;;;4965984;28;20409;-76
2022/09/29 12:00:15;;;;;;;2.95;1.77;;;17.70;77.90;;;;;;4965935;28;20135;-79
2022/09/29 12:03:00;;;;;;;3.67;2.10;;;17.70;77.90;;;;;;4965515;28;20089;-77
2022/09/29 12:05:28;;;;;;;3.97;1.98;;;17.70;77.90;;;;;;4967385;28;20041;-76
2022/09/29 12:08:18;;;;;;;3.28;1.83;;;17.80;77.80;;;;;;4949532;28;20094;-75
2022/09/29 12:10:49;;;;;;;4.20;2.00;;;17.70;77.60;;;;;;4949669;28;20034;-75
2022/09/29 12:13:44;;;;;;;2.38;1.60;;;17.80;77.50;;;;;;4966678;28;20326;-76
2022/09/29 12:16:14;;;;;;;3.78;1.80;;;17.80;77.40;;;;;;4966720;28;20159;-78
2022/09/29 12:18:52;;;;;;;3.35;1.90;;;17.80;77.40;;;;;;4965315;28;20030;-76
2022/09/29 12:21:41;;;;;;;3.03;1.70;;;17.80;77.30;;;;;;4949656;28;20058;-78
2022/09/29 12:24:32;;;;;;;3.65;1.85;;;17.80;77.30;;;;;;4966734;28;20027;-76
2022/09/29 12:27:00;;;;;;;2.45;1.60;;;17.80;77.50;;;;;;4965181;28;20409;-77
2022/09/29 12:29:30;;;;;;;3.08;1.70;;;17.80;77.60;;;;;;4965319;28;20030;-79
2022/09/29 12:31:58;;;;;;;3.13;1.70;;;17.70;77.60;;;;;;4949792;28;20027;-75
2022/09/29 12:34:45;;;;;;;3.47;2.05;;;17.70;77.60;;;;;;4966492;28;20026;-75
2022/09/29 12:37:31;;;;;;;3.13;1.80;;;17.70;77.70;;;;;;4966390;28;20081;-77
2022/09/29 12:40:15;;;;;;;2.65;1.60;;;17.60;77.80;;;;;;4948981;28;20085;-78
2022/09/29 12:42:44;;;;;;;2.88;1.60;;;17.60;78.00;;;;;;4966595;28;20034;-75
2022/09/29 12:45:47;;;;;;;2.40;1.60;;;17.50;78.20;;;;;;4949725;28;20092;-75
2022/09/29 12:48:31;;;;;;;2.90;1.65;;;17.50;78.40;;;;;;4949500;28;20038;-78
2022/09/29 12:51:02;;;;;;;3.10;1.75;;;17.50;78.50;;;;;;4949721;28;20029;-77
2022/09/29 12:53:34;;;;;;;3.13;1.80;;;17.50;78.60;;;;;;4974208;28;20527;-77
2022/09/29 12:56:24;;;;;;;2.38;1.45;;;17.50;78.70;;;;;;4969069;28;20066;-79
2022/09/29 12:58:55;;;;;;;3.00;1.80;;;17.40;78.70;;;;;;4985586;28;20026;-77
2022/09/29 13:01:20;;;;;;;3.72;2.00;;;17.40;78.70;;;;;;4984040;28;20133;-80
2022/09/29 13:04:34;;;;;;;3.15;1.50;;;17.40;78.80;;;;;;4983612;28;20156;-77
2022/09/29 13:07:30;;;;;;;2.70;1.60;;;17.40;78.80;;;;;;4948519;28;20063;-79
2022/09/29 13:10:26;;;;;;;3.05;1.50;;;17.40;78.70;;;;;;4982831;28;20034;-77
2022/09/29 13:13:07;;;;;;;3.20;1.70;;;17.40;78.50;;;;;;4984171;28;20018;-76
2022/09/29 13:15:53;;;;;;;2.92;1.85;;;17.40;78.30;;;;;;4985500;28;20060;-79
2022/09/29 13:18:34;;;;;;;2.45;1.63;;;17.40;78.20;;;;;;4982887;28;20253;-75